Alda, Nebraska
Current Conditions -  °F | °C
As of 9:53 AM on Monday 24 Nov 2014 (Local Time) from KHSI Reporting Station
Clear Clear  
Wind Chill: -8°   Ceiling: Unl
Heat Index: -1°   Visibility: 10mi
Dew Point: -8°   Wind: 24mph
Humidity: 59%   Direction: 320°NW
Pressure: 29.8"   Gusts: 32mph
Location:  40.87°N, 98.47°W
Report Text: KHSI 241553Z AUTO 32021G28KT 10SM CLR M01/M08 A2980 RMK AO2 PK WND 31030/1530 SLP106 T10061078
Loading
Personal Weather Stations






























Interactive Weather Map New forecast layout! Learn more

10-Day Weather Forecast

Advertisements
Track Severe Weather on mobile